createdAt,value
2022-09-06T00:00:22.811Z,101834.00
2022-09-06T00:02:49.743Z,101829.00
2022-09-06T00:05:16.755Z,101831.00
2022-09-06T00:07:43.564Z,101833.00
2022-09-06T00:10:10.991Z,101834.00
2022-09-06T00:12:38.407Z,101823.00
2022-09-06T00:15:06.783Z,101837.00
2022-09-06T00:17:34.458Z,101824.00
2022-09-06T00:20:02.135Z,101838.00
2022-09-06T00:22:28.934Z,101828.00
2022-09-06T00:24:55.923Z,101828.00
2022-09-06T00:27:23.199Z,101829.00
2022-09-06T00:29:49.977Z,101830.00
2022-09-06T00:32:17.276Z,101829.00
2022-09-06T00:34:44.116Z,101826.00
2022-09-06T00:37:10.909Z,101823.00
2022-09-06T00:39:37.761Z,101823.00
2022-09-06T00:42:12.427Z,101824.00
2022-09-06T00:44:40.010Z,101816.00
2022-09-06T00:47:08.768Z,101819.00
2022-09-06T00:49:44.224Z,101821.00
2022-09-06T00:52:15.365Z,101816.00
2022-09-06T00:54:43.592Z,101819.00
2022-09-06T00:57:11.126Z,101818.00
2022-09-06T00:59:41.018Z,101825.00
2022-09-06T01:02:09.614Z,101824.00
2022-09-06T01:04:40.205Z,101824.00
2022-09-06T01:07:18.426Z,101828.00
2022-09-06T01:10:18.438Z,101826.00
2022-09-06T01:13:18.043Z,101810.00
2022-09-06T01:16:43.533Z,101816.00
2022-09-06T01:19:47.689Z,101818.00
2022-09-06T01:23:21.035Z,101819.00
2022-09-06T01:26:22.287Z,101820.00
2022-09-06T01:28:51.080Z,101805.00
2022-09-06T01:31:46.798Z,101814.00
2022-09-06T01:34:31.575Z,101814.00
2022-09-06T01:37:16.151Z,101810.00
2022-09-06T01:39:42.991Z,101814.00
2022-09-06T01:42:20.950Z,101801.00
2022-09-06T01:44:57.838Z,101804.00
2022-09-06T01:47:41.502Z,101800.00
2022-09-06T01:51:05.573Z,101796.00
2022-09-06T01:54:02.325Z,101813.00
2022-09-06T01:57:31.399Z,101797.00
2022-09-06T02:00:13.485Z,101802.00
2022-09-06T02:02:56.473Z,101798.00
2022-09-06T02:05:42.221Z,101802.00
2022-09-06T02:08:17.372Z,101793.00
2022-09-06T02:11:02.980Z,101791.00
2022-09-06T02:13:48.163Z,101796.00
2022-09-06T02:16:21.994Z,101796.00
2022-09-06T02:19:12.156Z,101791.00
2022-09-06T02:21:45.597Z,101789.00
2022-09-06T02:24:22.120Z,101789.00
2022-09-06T02:26:50.026Z,101783.00
2022-09-06T02:29:17.765Z,101786.00
2022-09-06T02:32:03.769Z,101791.00
2022-09-06T02:34:30.891Z,101797.00
2022-09-06T02:36:58.268Z,101787.00
2022-09-06T02:39:25.143Z,101788.00
2022-09-06T02:41:52.365Z,101784.00
2022-09-06T02:44:19.154Z,101786.00
2022-09-06T02:46:45.961Z,101793.00
2022-09-06T02:49:12.915Z,101782.00
2022-09-06T02:51:40.449Z,101792.00
2022-09-06T02:54:07.682Z,101793.00
2022-09-06T02:56:36.734Z,101803.00
2022-09-06T02:59:05.713Z,101786.00
2022-09-06T03:01:33.712Z,101788.00
2022-09-06T03:04:00.787Z,101789.00
2022-09-06T03:06:27.802Z,101787.00
2022-09-06T03:08:54.643Z,101788.00
2022-09-06T03:11:21.688Z,101789.00
2022-09-06T03:13:48.517Z,101783.00
2022-09-06T03:16:15.441Z,101788.00
2022-09-06T03:18:42.281Z,101782.00
2022-09-06T03:21:09.028Z,101778.00
2022-09-06T03:23:35.844Z,101779.00
2022-09-06T03:26:02.593Z,101779.00
2022-09-06T03:28:29.466Z,101768.00
2022-09-06T03:30:56.427Z,101770.00
2022-09-06T03:33:23.657Z,101775.00
2022-09-06T03:35:57.722Z,101772.00
2022-09-06T03:38:27.161Z,101771.00
2022-09-06T03:40:54.649Z,101763.00
2022-09-06T03:43:23.584Z,101768.00
2022-09-06T03:45:53.895Z,101765.00
2022-09-06T03:48:23.392Z,101758.00
2022-09-06T03:50:55.017Z,101766.00
2022-09-06T03:53:23.652Z,101757.00
2022-09-06T03:55:54.242Z,101765.00
2022-09-06T03:58:23.567Z,101761.00
2022-09-06T04:00:59.867Z,101777.00
2022-09-06T04:03:26.732Z,101778.00
2022-09-06T04:05:53.534Z,101779.00
2022-09-06T04:08:20.316Z,101776.00
2022-09-06T04:10:52.687Z,101772.00
2022-09-06T04:13:19.551Z,101775.00
2022-09-06T04:15:47.930Z,101772.00
2022-09-06T04:18:15.963Z,101770.00
2022-09-06T04:20:43.121Z,101766.00
2022-09-06T04:23:09.901Z,101751.00
2022-09-06T04:25:37.122Z,101765.00
2022-09-06T04:28:03.939Z,101757.00
2022-09-06T04:30:30.981Z,101750.00
2022-09-06T04:32:57.745Z,101761.00
2022-09-06T04:35:24.710Z,101760.00
2022-09-06T04:37:52.044Z,101754.00
2022-09-06T04:40:18.845Z,101763.00
2022-09-06T04:42:45.585Z,101755.00
2022-09-06T04:45:12.519Z,101747.00
2022-09-06T04:47:39.267Z,101747.00
2022-09-06T04:50:06.587Z,101759.00
2022-09-06T04:52:33.434Z,101751.00
2022-09-06T04:55:00.180Z,101750.00
2022-09-06T04:57:26.998Z,101750.00
2022-09-06T04:59:53.771Z,101745.00
2022-09-06T05:02:20.677Z,101739.00
2022-09-06T05:04:47.551Z,101743.00
2022-09-06T05:07:14.300Z,101736.00
2022-09-06T05:09:41.119Z,101740.00
2022-09-06T05:12:07.961Z,101732.00
2022-09-06T05:14:35.357Z,101744.00
2022-09-06T05:17:02.149Z,101730.00
2022-09-06T05:19:28.943Z,101728.00
2022-09-06T05:21:55.834Z,101735.00
2022-09-06T05:24:22.849Z,101728.00
2022-09-06T05:26:49.620Z,101733.00
2022-09-06T05:29:16.409Z,101736.00
2022-09-06T05:31:43.439Z,101734.00
2022-09-06T05:34:10.572Z,101736.00
2022-09-06T05:36:38.796Z,101743.00
2022-09-06T05:39:05.768Z,101742.00
2022-09-06T05:41:33.784Z,101734.00
2022-09-06T05:44:01.414Z,101726.00
2022-09-06T05:46:28.146Z,101730.00
2022-09-06T05:49:04.664Z,101726.00
2022-09-06T05:51:32.729Z,101740.00
2022-09-06T05:54:00.104Z,101745.00
2022-09-06T05:56:27.038Z,101735.00
2022-09-06T05:58:53.778Z,101737.00
2022-09-06T06:01:26.665Z,101747.00
2022-09-06T06:03:59.062Z,101745.00
2022-09-06T06:06:31.456Z,101745.00
2022-09-06T06:08:58.968Z,101742.00
2022-09-06T06:11:27.519Z,101742.00
2022-09-06T06:13:54.967Z,101742.00
2022-09-06T06:16:23.374Z,101737.00
2022-09-06T06:18:52.637Z,101735.00
2022-09-06T06:21:23.076Z,101725.00
2022-09-06T06:23:56.678Z,101711.00
2022-09-06T06:26:24.151Z,101723.00
2022-09-06T06:28:51.735Z,101712.00
2022-09-06T06:31:19.411Z,101726.00
2022-09-06T06:33:46.367Z,101722.00
2022-09-06T06:36:15.722Z,101727.00
2022-09-06T06:38:45.141Z,101724.00
2022-09-06T06:41:15.674Z,101724.00
2022-09-06T06:43:42.672Z,101724.00
2022-09-06T06:46:20.234Z,101711.00
2022-09-06T06:48:50.445Z,101726.00
2022-09-06T06:51:22.707Z,101729.00
2022-09-06T06:53:49.666Z,101719.00
2022-09-06T06:56:34.519Z,101721.00
2022-09-06T06:59:04.604Z,101719.00
2022-09-06T07:01:34.718Z,101721.00
2022-09-06T07:04:02.131Z,101713.00
2022-09-06T07:09:19.429Z,101714.00
2022-09-06T07:11:48.742Z,101707.00
2022-09-06T07:14:17.545Z,101712.00
2022-09-06T07:16:44.880Z,101698.00
2022-09-06T07:22:02.874Z,101715.00
2022-09-06T07:24:32.126Z,101715.00
2022-09-06T07:29:45.916Z,101720.00
2022-09-06T07:32:12.813Z,101724.00
2022-09-06T07:34:39.715Z,101724.00
2022-09-06T07:37:06.590Z,101728.00
2022-09-06T07:39:33.454Z,101722.00
2022-09-06T07:42:01.080Z,101729.00
2022-09-06T07:44:29.175Z,101733.00
2022-09-06T07:55:16.944Z,101719.00
2022-09-06T07:57:43.790Z,101711.00
2022-09-06T08:00:11.839Z,101709.00
2022-09-06T08:02:40.781Z,101711.00
2022-09-06T08:10:41.932Z,101710.00
2022-09-06T08:13:08.721Z,101716.00
2022-09-06T08:15:35.634Z,101716.00
2022-09-06T08:18:02.491Z,101711.00
2022-09-06T08:20:29.290Z,101704.00
2022-09-06T08:22:56.097Z,101713.00
2022-09-06T08:25:22.894Z,101713.00
2022-09-06T08:27:49.666Z,101717.00
2022-09-06T08:30:16.496Z,101725.00
2022-09-06T08:32:43.302Z,101717.00
2022-09-06T08:35:10.537Z,101714.00
2022-09-06T08:37:37.444Z,101720.00
2022-09-06T08:40:04.672Z,101714.00
2022-09-06T08:42:31.813Z,101717.00
2022-09-06T08:45:00.478Z,101715.00
2022-09-06T08:47:27.502Z,101705.00
2022-09-06T08:50:07.516Z,101717.00
2022-09-06T08:53:13.647Z,101714.00
2022-09-06T08:55:47.321Z,101717.00
2022-09-06T08:59:02.615Z,101710.00
2022-09-06T09:01:47.066Z,101702.00
2022-09-06T09:04:23.253Z,101701.00
2022-09-06T09:06:59.887Z,101695.00
2022-09-06T09:09:31.230Z,101699.00
2022-09-06T09:12:01.413Z,101694.00
2022-09-06T09:14:36.089Z,101688.00
2022-09-06T09:17:26.614Z,101693.00
2022-09-06T09:19:53.958Z,101683.00
2022-09-06T09:22:20.913Z,101680.00
2022-09-06T09:24:48.707Z,101687.00
2022-09-06T09:27:28.520Z,101685.00
2022-09-06T09:32:46.479Z,101679.00
2022-09-06T09:35:36.684Z,101672.00
2022-09-06T09:38:11.670Z,101673.00
2022-09-06T09:40:58.222Z,101669.00
2022-09-06T09:43:30.623Z,101662.00
2022-09-06T09:46:24.703Z,101660.00
2022-09-06T09:49:29.282Z,101658.00
2022-09-06T09:52:09.434Z,101638.00
2022-09-06T09:54:40.181Z,101638.00
2022-09-06T09:57:17.669Z,101640.00
2022-09-06T10:00:03.131Z,101638.00
2022-09-06T10:02:41.075Z,101639.00
2022-09-06T10:05:15.950Z,101638.00
2022-09-06T10:07:56.069Z,101644.00
2022-09-06T10:10:32.032Z,101627.00
2022-09-06T10:13:16.376Z,101618.00
2022-09-06T10:15:43.778Z,101624.00
2022-09-06T10:18:32.517Z,101631.00
2022-09-06T10:21:09.279Z,101636.00
2022-09-06T10:27:02.995Z,101620.00
2022-09-06T10:29:50.118Z,101628.00
2022-09-06T10:32:40.334Z,101628.00
2022-09-06T10:35:15.094Z,101619.00
2022-09-06T10:38:03.979Z,101621.00
2022-09-06T10:40:41.947Z,101617.00
2022-09-06T10:43:17.984Z,101615.00
2022-09-06T10:46:05.456Z,101621.00
2022-09-06T10:48:41.920Z,101614.00
2022-09-06T10:51:29.799Z,101616.00
2022-09-06T10:54:09.822Z,101607.00
2022-09-06T10:57:05.678Z,101604.00
2022-09-06T10:59:42.067Z,101595.00
2022-09-06T11:05:51.873Z,101585.00
2022-09-06T11:08:57.905Z,101595.00
2022-09-06T11:11:36.082Z,101589.00
2022-09-06T11:14:13.515Z,101596.00
2022-09-06T11:16:52.349Z,101595.00
2022-09-06T11:19:39.538Z,101589.00
2022-09-06T11:22:32.231Z,101581.00
2022-09-06T11:25:27.454Z,101587.00
2022-09-06T11:27:59.471Z,101596.00
2022-09-06T11:30:27.757Z,101585.00
2022-09-06T11:33:16.331Z,101589.00
2022-09-06T11:35:43.387Z,101585.00
2022-09-06T11:38:16.004Z,101588.00
2022-09-06T11:40:57.387Z,101580.00
2022-09-06T11:43:52.305Z,101577.00
2022-09-06T11:46:34.376Z,101575.00
2022-09-06T11:49:15.176Z,101579.00
2022-09-06T11:51:45.217Z,101572.00
2022-09-06T11:54:14.999Z,101573.00
2022-09-06T11:57:03.795Z,101567.00
2022-09-06T11:59:47.990Z,101565.00
2022-09-06T12:02:37.226Z,101570.00
2022-09-06T12:05:07.170Z,101569.00
2022-09-06T12:07:41.569Z,101562.00
2022-09-06T12:10:30.319Z,101568.00
2022-09-06T12:12:58.510Z,101554.00
2022-09-06T12:15:42.730Z,101558.00
2022-09-06T12:18:09.911Z,101553.00
2022-09-06T12:20:49.115Z,101560.00
2022-09-06T12:23:34.727Z,101558.00
2022-09-06T12:26:10.685Z,101555.00
2022-09-06T12:28:51.408Z,101559.00
2022-09-06T12:31:40.093Z,101558.00
2022-09-06T12:34:19.054Z,101546.00
2022-09-06T12:36:59.055Z,101546.00
2022-09-06T12:39:26.961Z,101544.00
2022-09-06T12:42:13.371Z,101538.00
2022-09-06T12:44:49.212Z,101535.00
2022-09-06T12:47:32.600Z,101536.00
2022-09-06T12:50:21.807Z,101529.00
2022-09-06T12:52:54.094Z,101534.00
2022-09-06T12:55:27.989Z,101530.00
2022-09-06T12:58:04.768Z,101524.00
2022-09-06T13:00:53.994Z,101522.00
2022-09-06T13:03:38.383Z,101522.00
2022-09-06T13:06:07.024Z,101526.00
2022-09-06T13:08:37.878Z,101514.00
2022-09-06T13:11:13.377Z,101507.00
2022-09-06T13:13:53.681Z,101508.00
2022-09-06T13:16:33.341Z,101509.00
2022-09-06T13:19:28.233Z,101506.00
2022-09-06T13:21:55.871Z,101500.00
2022-09-06T13:24:37.483Z,101501.00
2022-09-06T13:27:24.183Z,101501.00
2022-09-06T13:30:00.798Z,101495.00
2022-09-06T13:32:28.903Z,101501.00
2022-09-06T13:35:00.770Z,101493.00
2022-09-06T13:37:36.213Z,101483.00
2022-09-06T13:41:09.812Z,101495.00
2022-09-06T13:43:33.732Z,101482.00
2022-09-06T13:46:09.579Z,101490.00
2022-09-06T13:48:36.806Z,101487.00
2022-09-06T13:51:06.737Z,101487.00
2022-09-06T13:53:34.954Z,101486.00
2022-09-06T13:56:02.112Z,101487.00
2022-09-06T13:58:29.861Z,101482.00
2022-09-06T14:00:58.501Z,101488.00
2022-09-06T14:03:31.483Z,101494.00
2022-09-06T14:06:00.254Z,101501.00
2022-09-06T14:08:43.899Z,101490.00
2022-09-06T14:11:20.950Z,101483.00
2022-09-06T14:13:47.900Z,101487.00
2022-09-06T14:16:14.842Z,101487.00
2022-09-06T14:18:41.739Z,101489.00
2022-09-06T14:21:08.715Z,101478.00
2022-09-06T14:23:35.501Z,101482.00
2022-09-06T14:26:05.230Z,101486.00
2022-09-06T14:28:34.115Z,101480.00
2022-09-06T14:31:17.187Z,101479.00
2022-09-06T14:33:44.168Z,101472.00
2022-09-06T14:36:16.253Z,101481.00
2022-09-06T14:38:44.664Z,101486.00
2022-09-06T14:41:15.707Z,101480.00
2022-09-06T14:43:44.252Z,101481.00
2022-09-06T14:46:17.316Z,101479.00
2022-09-06T14:48:45.619Z,101478.00
2022-09-06T14:51:24.283Z,101485.00
2022-09-06T14:53:56.015Z,101483.00
2022-09-06T14:56:23.538Z,101474.00
2022-09-06T14:58:50.397Z,101468.00
2022-09-06T15:01:20.432Z,101486.00
2022-09-06T15:03:51.838Z,101479.00
2022-09-06T15:06:23.020Z,101466.00
2022-09-06T15:08:50.685Z,101465.00
2022-09-06T15:11:38.511Z,101465.00
2022-09-06T15:14:17.271Z,101454.00
2022-09-06T15:16:46.533Z,101461.00
2022-09-06T15:19:13.993Z,101449.00
2022-09-06T15:21:41.940Z,101461.00
2022-09-06T15:24:11.950Z,101463.00
2022-09-06T15:26:40.875Z,101456.00
2022-09-06T15:29:12.171Z,101451.00
2022-09-06T15:31:40.043Z,101450.00
2022-09-06T15:34:07.893Z,101451.00
2022-09-06T15:36:36.589Z,101430.00
2022-09-06T15:39:05.845Z,101432.00
2022-09-06T15:41:36.809Z,101431.00
2022-09-06T15:44:13.598Z,101428.00
2022-09-06T15:46:57.589Z,101433.00
2022-09-06T15:49:28.732Z,101429.00
2022-09-06T15:51:58.341Z,101428.00
2022-09-06T15:54:45.383Z,101433.00
2022-09-06T15:57:14.460Z,101439.00
2022-09-06T15:59:41.289Z,101438.00
2022-09-06T16:02:09.841Z,101425.00
2022-09-06T16:04:36.782Z,101423.00
2022-09-06T16:07:04.301Z,101425.00
2022-09-06T16:09:31.773Z,101422.00
2022-09-06T16:11:58.604Z,101413.00
2022-09-06T16:14:25.636Z,101402.00
2022-09-06T16:16:53.826Z,101407.00
2022-09-06T16:19:20.824Z,101407.00
2022-09-06T16:21:47.607Z,101410.00
2022-09-06T16:24:15.060Z,101403.00
2022-09-06T16:26:46.187Z,101408.00
2022-09-06T16:29:16.236Z,101404.00
2022-09-06T16:31:43.032Z,101412.00
2022-09-06T16:34:11.852Z,101408.00
2022-09-06T16:36:39.303Z,101405.00
2022-09-06T16:39:07.604Z,101411.00
2022-09-06T16:41:41.134Z,101409.00
2022-09-06T16:44:17.429Z,101405.00
2022-09-06T16:46:50.211Z,101416.00
2022-09-06T16:49:19.250Z,101409.00
2022-09-06T16:51:47.696Z,101418.00
2022-09-06T16:54:15.536Z,101411.00
2022-09-06T16:56:43.100Z,101409.00
2022-09-06T16:59:11.586Z,101401.00
2022-09-06T17:01:42.673Z,101403.00
2022-09-06T17:04:10.172Z,101410.00
2022-09-06T17:06:44.212Z,101394.00
2022-09-06T17:09:14.142Z,101397.00
2022-09-06T17:11:41.210Z,101400.00
2022-09-06T17:14:08.512Z,101396.00
2022-09-06T17:16:53.856Z,101401.00
2022-09-06T17:19:20.811Z,101396.00
2022-09-06T17:21:47.755Z,101392.00
2022-09-06T17:24:14.609Z,101388.00
2022-09-06T17:26:41.401Z,101397.00
2022-09-06T17:29:08.903Z,101400.00
2022-09-06T17:31:37.053Z,101399.00
2022-09-06T17:34:05.297Z,101397.00
2022-09-06T17:36:34.061Z,101396.00
2022-09-06T17:39:11.167Z,101382.00
2022-09-06T17:41:46.890Z,101389.00
2022-09-06T17:44:26.107Z,101378.00
2022-09-06T17:49:40.446Z,101387.00
2022-09-06T17:52:07.224Z,101392.00
2022-09-06T17:54:33.991Z,101390.00
2022-09-06T17:57:00.764Z,101399.00
2022-09-06T17:59:31.538Z,101395.00
2022-09-06T18:02:01.151Z,101402.00
2022-09-06T18:04:28.363Z,101410.00
2022-09-06T18:06:55.182Z,101407.00
2022-09-06T18:09:22.014Z,101417.00
2022-09-06T18:11:49.182Z,101411.00
2022-09-06T18:14:20.605Z,101407.00
2022-09-06T18:16:51.067Z,101407.00
2022-09-06T18:19:18.879Z,101405.00
2022-09-06T18:21:47.129Z,101417.00
2022-09-06T18:24:14.669Z,101421.00
2022-09-06T18:26:42.992Z,101419.00
2022-09-06T18:29:13.089Z,101410.00
2022-09-06T18:31:40.970Z,101419.00
2022-09-06T18:34:09.227Z,101411.00
2022-09-06T18:36:37.827Z,101411.00
2022-09-06T18:39:05.454Z,101426.00
2022-09-06T18:41:52.661Z,101421.00
2022-09-06T18:44:20.513Z,101412.00
2022-09-06T18:46:48.594Z,101415.00
2022-09-06T18:49:16.390Z,101417.00
2022-09-06T18:51:44.651Z,101418.00
2022-09-06T18:54:11.431Z,101413.00
2022-09-06T18:56:38.526Z,101417.00
2022-09-06T18:59:05.714Z,101411.00
2022-09-06T19:01:34.681Z,101408.00
2022-09-06T19:04:02.377Z,101407.00
2022-09-06T19:06:31.849Z,101400.00
2022-09-06T19:09:01.033Z,101408.00
2022-09-06T19:11:28.593Z,101405.00
2022-09-06T19:13:57.255Z,101414.00
2022-09-06T19:16:27.461Z,101419.00
2022-09-06T19:18:56.107Z,101413.00
2022-09-06T19:21:25.489Z,101416.00
2022-09-06T19:24:06.251Z,101408.00
2022-09-06T19:26:39.833Z,101417.00
2022-09-06T19:29:13.278Z,101417.00
2022-09-06T19:31:40.224Z,101410.00
2022-09-06T19:34:07.800Z,101417.00
2022-09-06T19:36:34.966Z,101422.00
2022-09-06T19:39:09.451Z,101416.00
2022-09-06T19:41:39.402Z,101407.00
2022-09-06T19:44:08.619Z,101411.00
2022-09-06T19:46:37.420Z,101411.00
2022-09-06T19:49:08.155Z,101409.00
2022-09-06T19:51:36.404Z,101396.00
2022-09-06T19:54:04.217Z,101396.00
2022-09-06T19:56:34.276Z,101402.00
2022-09-06T19:59:05.142Z,101394.00
2022-09-06T20:01:34.490Z,101390.00
2022-09-06T20:04:05.054Z,101388.00
2022-09-06T20:06:32.089Z,101375.00
2022-09-06T20:09:01.448Z,101391.00
2022-09-06T20:11:34.820Z,101389.00
2022-09-06T20:14:01.808Z,101394.00
2022-09-06T20:16:30.309Z,101389.00
2022-09-06T20:19:01.489Z,101390.00
2022-09-06T20:21:29.449Z,101393.00
2022-09-06T20:23:59.161Z,101392.00
2022-09-06T20:26:29.122Z,101385.00
2022-09-06T20:29:01.593Z,101387.00
2022-09-06T20:31:31.156Z,101385.00
2022-09-06T20:34:04.336Z,101385.00
2022-09-06T20:36:31.290Z,101383.00
2022-09-06T20:38:58.042Z,101372.00
2022-09-06T20:41:26.867Z,101379.00
2022-09-06T20:43:57.301Z,101365.00
2022-09-06T20:46:30.591Z,101366.00
2022-09-06T20:49:01.804Z,101370.00
2022-09-06T20:51:28.639Z,101374.00
2022-09-06T20:53:59.314Z,101368.00
2022-09-06T20:56:37.475Z,101372.00
2022-09-06T20:59:08.918Z,101358.00
2022-09-06T21:01:43.768Z,101363.00
2022-09-06T21:04:13.447Z,101350.00
2022-09-06T21:06:41.434Z,101339.00
2022-09-06T21:09:13.430Z,101333.00
2022-09-06T21:11:40.794Z,101336.00
2022-09-06T21:14:08.079Z,101347.00
2022-09-06T21:16:35.489Z,101337.00
2022-09-06T21:19:07.348Z,101336.00
2022-09-06T21:21:34.798Z,101340.00
2022-09-06T21:24:03.696Z,101349.00
2022-09-06T21:26:30.512Z,101337.00
2022-09-06T21:28:57.657Z,101339.00
2022-09-06T21:31:36.453Z,101339.00
2022-09-06T21:34:07.079Z,101340.00
2022-09-06T21:36:36.864Z,101338.00
2022-09-06T21:39:09.919Z,101340.00
2022-09-06T21:41:39.312Z,101336.00
2022-09-06T21:44:08.005Z,101333.00
2022-09-06T21:46:39.084Z,101333.00
2022-09-06T21:49:12.724Z,101330.00
2022-09-06T21:51:40.560Z,101320.00
2022-09-06T21:54:07.643Z,101327.00
2022-09-06T21:56:36.430Z,101319.00
2022-09-06T21:59:05.608Z,101310.00
2022-09-06T22:01:35.029Z,101301.00
2022-09-06T22:04:02.387Z,101298.00
2022-09-06T22:06:32.429Z,101301.00
2022-09-06T22:09:03.840Z,101306.00
2022-09-06T22:11:33.887Z,101299.00
2022-09-06T22:14:04.995Z,101302.00
2022-09-06T22:16:37.026Z,101297.00
2022-09-06T22:19:05.950Z,101293.00
2022-09-06T22:21:33.735Z,101299.00
2022-09-06T22:24:04.562Z,101291.00
2022-09-06T22:26:33.651Z,101283.00
2022-09-06T22:29:06.124Z,101290.00
2022-09-06T22:31:34.386Z,101288.00
2022-09-06T22:34:02.360Z,101282.00
2022-09-06T22:36:29.155Z,101293.00
2022-09-06T22:38:59.025Z,101283.00
2022-09-06T22:41:30.962Z,101283.00
2022-09-06T22:44:00.854Z,101268.00
2022-09-06T22:46:28.798Z,101268.00
2022-09-06T22:48:55.679Z,101268.00
2022-09-06T22:51:22.791Z,101261.00
2022-09-06T22:53:49.540Z,101250.00
2022-09-06T22:56:16.374Z,101263.00
2022-09-06T22:58:43.108Z,101262.00
2022-09-06T23:01:16.302Z,101264.00
2022-09-06T23:03:43.760Z,101255.00
2022-09-06T23:06:10.763Z,101260.00
2022-09-06T23:08:40.805Z,101268.00
2022-09-06T23:11:14.472Z,101269.00
2022-09-06T23:13:46.980Z,101268.00
2022-09-06T23:16:19.265Z,101260.00
2022-09-06T23:18:47.150Z,101257.00
2022-09-06T23:21:20.881Z,101256.00
2022-09-06T23:23:49.297Z,101266.00
2022-09-06T23:26:24.703Z,101255.00
2022-09-06T23:28:56.632Z,101259.00
2022-09-06T23:31:26.663Z,101254.00
2022-09-06T23:33:55.932Z,101250.00
2022-09-06T23:36:23.040Z,101255.00
2022-09-06T23:38:50.097Z,101245.00
2022-09-06T23:41:17.390Z,101253.00
2022-09-06T23:43:44.589Z,101254.00
2022-09-06T23:46:14.741Z,101261.00
2022-09-06T23:48:42.912Z,101268.00
2022-09-06T23:51:10.363Z,101268.00
2022-09-06T23:53:37.511Z,101268.00
2022-09-06T23:56:05.029Z,101273.00
2022-09-06T23:58:31.858Z,101278.00
